Time;durP1;ratioP1;P1;durP2;ratioP2;P2;SDS_P1;SDS_P2;PMS_P1;PMS_P2;Temp;Humidity;BMP_temperature;BMP_pressure;BME280_temperature;BME280_humidity;BME280_pressure;Samples;Min_cycle;Max_cycle;Signal;HPM_P1;HPM_P2
2023/12/20 00:00:42;;;;;;;3.07;1.77;;;;;;;6.73;100.00;96253.16;5036277;28;20205;-68
2023/12/20 00:03:08;;;;;;;4.10;1.60;;;;;;;6.74;100.00;96254.81;5038428;28;20227;-68
2023/12/20 00:05:38;;;;;;;2.77;1.57;;;;;;;7.04;100.00;96252.56;5038384;28;20217;-69
2023/12/20 00:08:05;;;;;;;3.23;1.77;;;;;;;6.99;100.00;96256.63;5038276;28;20292;-71
2023/12/20 00:10:31;;;;;;;3.50;1.80;;;;;;;6.94;100.00;96251.03;5037840;28;20204;-68
2023/12/20 00:12:58;;;;;;;2.17;1.50;;;;;;;6.91;100.00;96267.03;5038377;28;20247;-70
2023/12/20 00:15:26;;;;;;;2.90;1.57;;;;;;;7.02;100.00;96279.88;5038217;28;20202;-68
2023/12/20 00:17:52;;;;;;;1.87;1.40;;;;;;;6.84;100.00;96276.50;5038461;28;20205;-70
2023/12/20 00:20:19;;;;;;;4.07;1.83;;;;;;;7.05;100.00;96271.72;5037524;28;20216;-69
2023/12/20 00:22:46;;;;;;;2.27;1.30;;;;;;;6.93;100.00;96267.72;5039061;28;20280;-68
2023/12/20 00:25:12;;;;;;;3.57;1.47;;;;;;;7.05;100.00;96266.47;5038416;28;20251;-68
2023/12/20 00:27:39;;;;;;;2.80;1.80;;;;;;;7.04;100.00;96275.31;5038415;28;20216;-69
2023/12/20 00:30:07;;;;;;;3.23;2.00;;;;;;;7.04;100.00;96272.69;5037547;28;20245;-69
2023/12/20 00:32:35;;;;;;;2.17;1.33;;;;;;;7.09;100.00;96266.03;5037868;28;20225;-71
2023/12/20 00:35:02;;;;;;;1.77;1.20;;;;;;;7.10;100.00;96258.97;5037884;28;20205;-69
2023/12/20 00:37:28;;;;;;;3.53;1.27;;;;;;;7.15;100.00;96259.34;5037587;28;20212;-69
2023/12/20 00:39:55;;;;;;;3.07;1.40;;;;;;;6.96;100.00;96256.91;5037878;28;20205;-68
2023/12/20 00:42:21;;;;;;;1.53;1.10;;;;;;;6.78;100.00;96254.38;5037817;28;20221;-67
2023/12/20 00:44:48;;;;;;;2.73;1.43;;;;;;;6.92;100.00;96240.69;5037416;28;20287;-70
2023/12/20 00:47:14;;;;;;;4.47;1.47;;;;;;;6.93;100.00;96249.38;5038286;28;20208;-67
2023/12/20 00:49:42;;;;;;;1.40;1.10;;;;;;;6.96;100.00;96243.81;5037795;28;20211;-68
2023/12/20 00:52:09;;;;;;;1.87;1.30;;;;;;;6.79;100.00;96239.47;5036870;28;20228;-67
2023/12/20 00:54:35;;;;;;;2.90;1.70;;;;;;;6.91;100.00;96246.09;5037434;28;20205;-71
2023/12/20 00:57:02;;;;;;;2.13;1.17;;;;;;;6.84;100.00;96247.69;5038775;28;20299;-69
2023/12/20 00:59:28;;;;;;;2.33;1.37;;;;;;;6.97;100.00;96240.25;5036677;28;21014;-68
2023/12/20 01:01:55;;;;;;;2.90;1.23;;;;;;;7.05;100.00;96232.41;5036269;28;20243;-71
2023/12/20 01:04:21;;;;;;;5.93;1.50;;;;;;;7.02;100.00;96230.13;5037683;28;20658;-68
2023/12/20 01:06:49;;;;;;;2.97;1.50;;;;;;;7.03;100.00;96216.06;5037631;28;20229;-71
2023/12/20 01:09:15;;;;;;;2.57;1.50;;;;;;;6.99;100.00;96218.16;5036447;28;21036;-71
2023/12/20 01:11:42;;;;;;;3.93;1.50;;;;;;;6.81;100.00;96213.94;5036583;28;20231;-69
2023/12/20 01:14:08;;;;;;;2.67;1.37;;;;;;;6.69;100.00;96212.56;5036957;28;20205;-70
2023/12/20 01:16:35;;;;;;;1.37;0.97;;;;;;;6.58;100.00;96189.28;5036648;28;20233;-72
2023/12/20 01:19:01;;;;;;;2.33;1.20;;;;;;;6.88;100.00;96194.03;5037051;28;20212;-70
2023/12/20 01:21:28;;;;;;;5.03;0.93;;;;;;;6.74;100.00;96194.59;5036904;28;20225;-69
2023/12/20 01:23:56;;;;;;;1.83;1.30;;;;;;;6.89;100.00;96185.19;5037005;28;21112;-68
2023/12/20 01:26:22;;;;;;;2.00;1.23;;;;;;;6.66;100.00;96189.31;5036705;28;20223;-71
2023/12/20 01:28:49;;;;;;;2.67;1.60;;;;;;;6.75;100.00;96183.16;5037184;28;20205;-71
2023/12/20 01:31:15;;;;;;;1.80;1.23;;;;;;;6.98;100.00;96189.50;5035657;28;20228;-71
2023/12/20 01:33:42;;;;;;;3.27;1.30;;;;;;;6.91;100.00;96183.22;5036684;28;20197;-68
2023/12/20 01:36:08;;;;;;;1.80;1.23;;;;;;;6.97;100.00;96187.84;5036372;28;20201;-70
2023/12/20 01:38:35;;;;;;;1.40;1.20;;;;;;;6.77;100.00;96182.03;5037069;28;20844;-68
2023/12/20 01:41:03;;;;;;;2.77;1.40;;;;;;;6.92;100.00;96179.63;5036274;28;20211;-68
2023/12/20 01:43:30;;;;;;;1.37;1.17;;;;;;;6.80;100.00;96192.19;5036529;28;20220;-67
2023/12/20 01:45:58;;;;;;;2.20;1.33;;;;;;;6.88;100.00;96180.94;5036296;28;20231;-69
2023/12/20 01:48:26;;;;;;;1.57;1.10;;;;;;;6.92;100.00;96190.13;5036379;28;20596;-68
2023/12/20 01:50:53;;;;;;;2.37;1.40;;;;;;;6.89;100.00;96206.16;5035812;28;20207;-72
2023/12/20 01:53:22;;;;;;;1.97;1.47;;;;;;;6.98;100.00;96199.97;5036213;28;20662;-68
2023/12/20 01:55:50;;;;;;;2.20;1.37;;;;;;;6.73;100.00;96211.28;5036824;28;20589;-68
2023/12/20 01:58:19;;;;;;;3.70;1.47;;;;;;;6.88;100.00;96207.13;5036403;28;20212;-70
2023/12/20 02:00:46;;;;;;;2.23;1.70;;;;;;;6.67;100.00;96211.91;5035520;28;20654;-67
2023/12/20 02:03:13;;;;;;;2.83;1.40;;;;;;;6.57;100.00;96200.72;5036465;28;20355;-68
2023/12/20 02:05:40;;;;;;;1.23;1.07;;;;;;;6.54;100.00;96206.22;5035940;28;20229;-70
2023/12/20 02:08:07;;;;;;;2.30;0.90;;;;;;;6.53;100.00;96207.22;5036155;28;20212;-68
2023/12/20 02:10:35;;;;;;;1.07;0.97;;;;;;;6.36;100.00;96209.88;5035669;28;20197;-71
2023/12/20 02:13:01;;;;;;;2.30;1.53;;;;;;;6.41;100.00;96211.06;5036482;28;20225;-70
2023/12/20 02:15:29;;;;;;;1.57;0.97;;;;;;;6.38;100.00;96195.66;5035529;28;20201;-69
2023/12/20 02:17:56;;;;;;;3.17;1.30;;;;;;;6.27;100.00;96201.13;5036262;28;20215;-68
2023/12/20 02:20:23;;;;;;;1.83;1.20;;;;;;;6.12;100.00;96192.19;5035834;28;20943;-68
2023/12/20 02:22:50;;;;;;;2.60;1.30;;;;;;;6.34;100.00;96191.72;5035924;28;20618;-69
2023/12/20 02:25:17;;;;;;;1.40;1.20;;;;;;;5.86;100.00;96192.28;5035817;28;20251;-69
2023/12/20 02:27:43;;;;;;;2.30;1.30;;;;;;;6.05;100.00;96200.78;5035702;28;20205;-68
2023/12/20 02:30:11;;;;;;;1.43;1.10;;;;;;;6.22;100.00;96199.94;5034771;28;20700;-70
2023/12/20 02:32:37;;;;;;;1.07;0.90;;;;;;;6.07;100.00;96196.22;5035271;28;20227;-71
2023/12/20 02:35:05;;;;;;;3.37;1.40;;;;;;;6.15;100.00;96199.72;5035625;28;20220;-70
2023/12/20 02:37:31;;;;;;;2.57;1.30;;;;;;;6.05;100.00;96204.22;5035743;28;20208;-69
2023/12/20 02:39:59;;;;;;;3.03;1.40;;;;;;;6.11;100.00;96198.41;5035911;28;20925;-68
2023/12/20 02:42:25;;;;;;;2.00;1.50;;;;;;;6.02;100.00;96197.66;5035449;28;20217;-71
2023/12/20 02:44:52;;;;;;;4.13;1.87;;;;;;;6.02;100.00;96203.72;5035863;28;20219;-68
2023/12/20 02:47:18;;;;;;;2.20;1.40;;;;;;;5.85;100.00;96207.13;5035998;28;20233;-68
2023/12/20 02:49:45;;;;;;;3.50;1.40;;;;;;;5.68;100.00;96207.13;5035728;28;20592;-70
2023/12/20 02:52:12;;;;;;;2.63;1.10;;;;;;;5.83;100.00;96210.88;5035374;28;20236;-71
2023/12/20 02:54:38;;;;;;;2.43;1.40;;;;;;;5.87;100.00;96206.97;5035527;28;20205;-68
2023/12/20 02:57:07;;;;;;;2.90;1.40;;;;;;;6.00;100.00;96215.31;5036073;28;20204;-67
2023/12/20 02:59:33;;;;;;;3.63;1.60;;;;;;;5.70;100.00;96223.47;5035524;28;21057;-71
2023/12/20 03:02:00;;;;;;;3.77;1.87;;;;;;;5.84;100.00;96221.22;5034416;28;20850;-71
2023/12/20 03:04:26;;;;;;;2.20;1.00;;;;;;;5.67;100.00;96221.16;5035624;28;20201;-69
2023/12/20 03:06:53;;;;;;;4.00;2.07;;;;;;;5.81;100.00;96226.72;5035407;28;20717;-69
2023/12/20 03:09:19;;;;;;;1.27;0.87;;;;;;;5.65;100.00;96223.91;5035463;28;20211;-67
2023/12/20 03:11:46;;;;;;;2.77;1.33;;;;;;;5.65;100.00;96225.69;5035034;28;20606;-68
2023/12/20 03:14:14;;;;;;;2.23;1.20;;;;;;;5.85;100.00;96227.25;5035820;28;20201;-70
2023/12/20 03:16:40;;;;;;;3.23;1.67;;;;;;;5.81;100.00;96218.88;5034845;28;20204;-69
2023/12/20 03:19:07;;;;;;;2.27;1.20;;;;;;;5.73;100.00;96217.94;5035403;28;20207;-71
2023/12/20 03:21:33;;;;;;;2.33;1.23;;;;;;;5.74;100.00;96215.19;5035148;28;20221;-71
2023/12/20 03:24:00;;;;;;;1.50;1.23;;;;;;;5.85;100.00;96214.97;5034015;28;20205;-68
2023/12/20 03:26:26;;;;;;;2.63;1.43;;;;;;;5.91;100.00;96216.19;5034920;28;20231;-68
2023/12/20 03:28:53;;;;;;;5.80;1.67;;;;;;;5.98;100.00;96215.44;5035568;28;20205;-71
2023/12/20 03:31:20;;;;;;;2.03;1.57;;;;;;;6.00;100.00;96218.72;5034003;28;20221;-68
2023/12/20 03:33:47;;;;;;;1.77;1.33;;;;;;;5.84;100.00;96204.69;5035392;28;20212;-68
2023/12/20 03:36:13;;;;;;;1.63;1.47;;;;;;;5.78;100.00;96205.25;5039183;28;20215;-69
2023/12/20 03:38:40;;;;;;;1.63;1.10;;;;;;;5.81;100.00;96210.22;5039778;28;20211;-68
2023/12/20 03:41:08;;;;;;;2.53;1.57;;;;;;;5.93;100.00;96214.25;5038216;28;20216;-69
2023/12/20 03:43:34;;;;;;;2.07;1.40;;;;;;;5.75;100.00;96219.44;5038542;28;21384;-70
2023/12/20 03:46:03;;;;;;;2.87;1.67;;;;;;;5.71;100.00;96215.47;5039336;28;20233;-69
2023/12/20 03:48:31;;;;;;;2.80;1.70;;;;;;;5.80;100.00;96213.78;5039280;28;20193;-68
2023/12/20 03:50:58;;;;;;;1.57;1.13;;;;;;;5.77;100.00;96216.72;5037746;28;20227;-69
2023/12/20 03:53:24;;;;;;;1.47;1.10;;;;;;;5.77;100.00;96214.91;5038337;28;20204;-70
2023/12/20 03:55:51;;;;;;;2.60;1.20;;;;;;;5.86;100.00;96213.22;5039029;28;20981;-70
2023/12/20 03:58:17;;;;;;;3.83;1.63;;;;;;;5.78;100.00;96210.50;5038440;28;20215;-68
2023/12/20 04:00:44;;;;;;;3.37;1.43;;;;;;;5.72;100.00;96211.06;5037412;28;20290;-68
2023/12/20 04:03:12;;;;;;;2.90;1.77;;;;;;;5.77;100.00;96214.09;5038872;28;20225;-69
2023/12/20 04:05:40;;;;;;;2.80;1.67;;;;;;;5.83;100.00;96203.03;5038213;28;20251;-68
2023/12/20 04:08:07;;;;;;;2.67;1.63;;;;;;;5.76;100.00;96207.22;5038629;28;20207;-67
2023/12/20 04:10:33;;;;;;;4.37;2.03;;;;;;;5.74;100.00;96214.34;5038253;28;20205;-70
2023/12/20 04:13:00;;;;;;;3.10;1.57;;;;;;;5.76;100.00;96213.25;5037789;28;20733;-69
2023/12/20 04:15:26;;;;;;;1.97;1.30;;;;;;;5.66;100.00;96209.84;5038371;28;20212;-71
2023/12/20 04:17:53;;;;;;;2.93;1.50;;;;;;;5.69;100.00;96217.41;5038123;28;20532;-68
2023/12/20 04:20:19;;;;;;;2.60;1.83;;;;;;;5.66;100.00;96217.69;5038143;28;20216;-69
2023/12/20 04:22:47;;;;;;;2.63;1.70;;;;;;;5.93;100.00;96225.53;5037994;28;20722;-68
2023/12/20 04:25:14;;;;;;;2.27;1.47;;;;;;;5.80;100.00;96224.25;5038166;28;20212;-70
2023/12/20 04:27:40;;;;;;;3.90;1.57;;;;;;;5.85;100.00;96222.00;5037603;28;20217;-70
2023/12/20 04:30:09;;;;;;;1.77;1.50;;;;;;;5.72;100.00;96232.00;5037520;28;20201;-67
2023/12/20 04:32:35;;;;;;;2.43;1.40;;;;;;;5.70;100.00;96223.47;5038132;28;20221;-70
2023/12/20 04:35:02;;;;;;;4.93;2.13;;;;;;;5.94;100.00;96226.34;5037538;28;20379;-67
2023/12/20 04:37:28;;;;;;;2.47;1.47;;;;;;;5.87;100.00;96235.75;5038028;28;20197;-69
2023/12/20 04:39:56;;;;;;;4.77;1.93;;;;;;;6.06;100.00;96234.63;5038276;28;21018;-68
2023/12/20 04:42:22;;;;;;;3.83;2.00;;;;;;;5.87;100.00;96228.75;5037208;28;20225;-71
2023/12/20 04:44:49;;;;;;;2.50;1.60;;;;;;;6.00;100.00;96236.22;5037672;28;20229;-70
2023/12/20 04:47:15;;;;;;;1.67;1.27;;;;;;;5.98;100.00;96238.97;5036958;28;20324;-67
2023/12/20 04:49:42;;;;;;;1.50;1.40;;;;;;;5.88;100.00;96242.63;5038046;28;20209;-71
2023/12/20 04:52:08;;;;;;;2.23;1.23;;;;;;;5.99;100.00;96252.88;5037109;28;20221;-71
2023/12/20 04:54:35;;;;;;;2.03;1.43;;;;;;;6.04;100.00;96246.22;5037357;28;20575;-67
2023/12/20 04:57:03;;;;;;;3.43;1.40;;;;;;;6.11;100.00;96245.47;5038204;28;20209;-68
2023/12/20 04:59:30;;;;;;;2.27;1.60;;;;;;;6.05;100.00;96251.31;5037267;28;20205;-67
2023/12/20 05:01:57;;;;;;;1.73;1.30;;;;;;;6.02;100.00;96252.56;5036721;28;20244;-69
2023/12/20 05:04:24;;;;;;;3.67;1.40;;;;;;;6.00;100.00;96250.13;5037613;28;20660;-71
2023/12/20 05:06:50;;;;;;;2.17;1.30;;;;;;;6.04;100.00;96254.88;5037299;28;20228;-68
2023/12/20 05:09:17;;;;;;;1.63;1.13;;;;;;;5.91;100.00;96251.00;5036882;28;20251;-70
2023/12/20 05:11:44;;;;;;;3.93;1.70;;;;;;;6.04;100.00;96256.69;5036959;28;20283;-68
2023/12/20 05:14:11;;;;;;;2.53;1.50;;;;;;;6.20;100.00;96252.44;5037012;28;20667;-69
2023/12/20 05:16:38;;;;;;;2.57;1.40;;;;;;;6.10;100.00;96250.88;5037242;28;20204;-68
2023/12/20 05:19:06;;;;;;;2.30;1.33;;;;;;;6.01;100.00;96243.06;5037425;28;20201;-71
2023/12/20 05:21:33;;;;;;;1.40;1.10;;;;;;;5.99;100.00;96250.25;5036704;28;20224;-69
2023/12/20 05:23:59;;;;;;;3.13;1.90;;;;;;;6.13;100.00;96248.75;5036823;28;20366;-69
2023/12/20 05:26:26;;;;;;;3.33;1.80;;;;;;;6.20;100.00;96254.25;5036271;28;20248;-68
2023/12/20 05:28:52;;;;;;;2.53;1.30;;;;;;;6.17;100.00;96259.75;5037191;28;20687;-69
2023/12/20 05:31:20;;;;;;;2.30;1.57;;;;;;;5.99;100.00;96277.22;5036162;28;20235;-69
2023/12/20 05:33:47;;;;;;;2.47;1.30;;;;;;;6.04;100.00;96282.03;5035366;28;20209;-68
2023/12/20 05:36:14;;;;;;;3.17;1.90;;;;;;;6.13;100.00;96298.47;5035946;28;20980;-70
2023/12/20 05:38:41;;;;;;;2.43;1.70;;;;;;;6.04;100.00;96289.88;5036818;28;20676;-71
2023/12/20 05:41:08;;;;;;;2.60;1.53;;;;;;;6.10;100.00;96297.94;5035929;28;20219;-67
2023/12/20 05:43:34;;;;;;;2.83;1.20;;;;;;;6.15;100.00;96298.34;5036253;28;20671;-68
2023/12/20 05:46:01;;;;;;;2.87;1.70;;;;;;;5.97;100.00;96304.50;5036449;28;20219;-68
2023/12/20 05:48:29;;;;;;;1.83;1.30;;;;;;;6.24;100.00;96303.47;5035838;28;20232;-69
2023/12/20 05:50:55;;;;;;;2.43;1.53;;;;;;;6.17;100.00;96312.06;5035868;28;20208;-68
2023/12/20 05:53:22;;;;;;;3.33;1.60;;;;;;;6.25;100.00;96315.59;5036253;28;20212;-70
2023/12/20 05:55:48;;;;;;;3.43;1.20;;;;;;;6.14;100.00;96313.19;5035600;28;20208;-68
2023/12/20 05:58:15;;;;;;;2.63;1.37;;;;;;;6.10;100.00;96311.03;5034900;28;20208;-67
2023/12/20 06:00:41;;;;;;;1.80;1.40;;;;;;;6.11;100.00;96310.88;5036661;28;20197;-71
2023/12/20 06:03:08;;;;;;;2.57;1.70;;;;;;;6.22;100.00;96302.81;5035535;28;20993;-69
2023/12/20 06:05:35;;;;;;;3.00;1.73;;;;;;;6.43;100.00;96313.81;5035413;28;20204;-72
2023/12/20 06:08:02;;;;;;;2.10;1.37;;;;;;;6.34;100.00;96319.09;5036840;28;20251;-70
2023/12/20 06:10:29;;;;;;;3.37;1.40;;;;;;;6.32;100.00;96321.06;5036153;28;20202;-69
2023/12/20 06:12:57;;;;;;;1.50;1.13;;;;;;;6.27;100.00;96324.09;5035620;28;20244;-71
2023/12/20 06:15:23;;;;;;;1.30;0.97;;;;;;;6.24;100.00;96340.09;5036372;28;20201;-72
2023/12/20 06:17:50;;;;;;;2.20;1.40;;;;;;;6.32;100.00;96347.22;5036503;28;20205;-68
2023/12/20 06:20:17;;;;;;;4.57;1.90;;;;;;;6.29;100.00;96348.34;5035467;28;20234;-68
2023/12/20 06:22:44;;;;;;;2.90;1.30;;;;;;;6.43;100.00;96345.22;5035289;28;20227;-68
2023/12/20 06:25:11;;;;;;;1.53;1.10;;;;;;;6.06;100.00;96343.69;5036329;28;20205;-68
2023/12/20 06:27:38;;;;;;;2.47;1.53;;;;;;;6.10;100.00;96332.78;5035872;28;20231;-71
2023/12/20 06:30:05;;;;;;;3.63;1.80;;;;;;;6.35;100.00;96337.28;5034057;28;20202;-72
2023/12/20 06:32:32;;;;;;;2.67;1.40;;;;;;;6.11;100.00;96342.28;5035712;28;20220;-68
2023/12/20 06:34:58;;;;;;;3.40;2.00;;;;;;;6.26;100.00;96346.03;5035428;28;20201;-72
2023/12/20 06:37:25;;;;;;;3.80;1.53;;;;;;;6.17;100.00;96354.78;5035684;28;20567;-71
2023/12/20 06:39:52;;;;;;;2.40;1.90;;;;;;;6.26;100.00;96360.88;5036420;28;20208;-68
2023/12/20 06:42:19;;;;;;;2.63;1.50;;;;;;;6.29;100.00;96348.34;5035039;28;20236;-72
2023/12/20 06:44:46;;;;;;;2.87;1.80;;;;;;;6.38;100.00;96352.69;5035667;28;20208;-67
2023/12/20 06:47:13;;;;;;;2.90;1.60;;;;;;;6.20;100.00;96362.31;5036043;28;20720;-69
2023/12/20 06:49:40;;;;;;;2.97;1.73;;;;;;;6.15;100.00;96372.41;5035847;28;20197;-69
2023/12/20 06:52:06;;;;;;;5.13;2.90;;;;;;;6.20;100.00;96364.94;5035286;28;20228;-69
2023/12/20 06:54:34;;;;;;;4.57;2.40;;;;;;;6.17;100.00;96369.63;5035764;28;20209;-68
2023/12/20 06:57:02;;;;;;;7.37;2.60;;;;;;;6.23;100.00;96369.84;5035454;28;20251;-70
2023/12/20 06:59:29;;;;;;;5.53;3.00;;;;;;;6.24;100.00;96366.28;5035347;28;20237;-70
2023/12/20 07:01:55;;;;;;;5.03;2.60;;;;;;;6.31;100.00;96371.75;5034615;28;20722;-68
2023/12/20 07:04:22;;;;;;;4.17;2.10;;;;;;;6.23;100.00;96372.47;5035615;28;20233;-68
2023/12/20 07:06:51;;;;;;;4.73;2.30;;;;;;;6.25;100.00;96374.94;5034875;28;20240;-69
2023/12/20 07:09:17;;;;;;;5.13;2.60;;;;;;;6.17;100.00;96382.69;5037036;28;20300;-68
2023/12/20 07:11:43;;;;;;;5.27;2.57;;;;;;;6.29;100.00;96373.69;5040034;28;20221;-68
2023/12/20 07:14:10;;;;;;;6.33;3.40;;;;;;;6.26;100.00;96374.81;5039712;28;20213;-68
2023/12/20 07:16:37;;;;;;;7.00;3.33;;;;;;;6.35;100.00;96373.09;5039254;28;20543;-72
2023/12/20 07:19:03;;;;;;;8.40;3.10;;;;;;;6.09;100.00;96380.81;5039843;28;20204;-69
2023/12/20 07:21:30;;;;;;;4.87;3.07;;;;;;;6.26;100.00;96387.91;5038794;28;20230;-68
2023/12/20 07:23:56;;;;;;;5.20;2.83;;;;;;;6.26;100.00;96384.44;5039435;28;20204;-69
2023/12/20 07:26:23;;;;;;;8.40;3.70;;;;;;;6.19;100.00;96394.69;5039390;28;20216;-68
2023/12/20 07:28:49;;;;;;;6.10;3.20;;;;;;;6.11;100.00;96407.66;5038187;28;20229;-71
2023/12/20 07:31:17;;;;;;;6.10;3.07;;;;;;;6.24;100.00;96387.22;5038293;28;20731;-70
2023/12/20 07:33:44;;;;;;;5.80;2.97;;;;;;;6.04;100.00;96407.56;5039543;28;20205;-67
2023/12/20 07:36:11;;;;;;;6.23;3.03;;;;;;;6.04;100.00;96415.44;5039397;28;20452;-68
2023/12/20 07:38:38;;;;;;;6.93;3.30;;;;;;;6.22;100.00;96409.25;5038341;28;20248;-68
2023/12/20 07:41:04;;;;;;;6.43;3.50;;;;;;;6.26;100.00;96416.69;5038595;28;20242;-68
2023/12/20 07:43:31;;;;;;;9.03;3.17;;;;;;;6.09;100.00;96421.84;5038179;28;20395;-68
2023/12/20 07:45:57;;;;;;;7.80;3.93;;;;;;;6.14;100.00;96422.25;5038648;28;20220;-71
2023/12/20 07:48:25;;;;;;;7.53;3.77;;;;;;;6.22;100.00;96427.56;5039262;28;20220;-70
2023/12/20 07:50:52;;;;;;;5.03;2.77;;;;;;;6.16;100.00;96421.13;5038440;28;20212;-69
2023/12/20 07:53:19;;;;;;;6.23;3.37;;;;;;;6.05;100.00;96426.56;5038541;28;20641;-69
2023/12/20 07:55:45;;;;;;;5.47;2.97;;;;;;;6.03;100.00;96430.28;5038376;28;20216;-69
2023/12/20 07:58:12;;;;;;;6.03;3.27;;;;;;;5.97;100.00;96435.25;5039431;28;20200;-69
2023/12/20 08:00:39;;;;;;;6.33;3.33;;;;;;;6.02;100.00;96433.03;5037928;28;20208;-69
2023/12/20 08:03:05;;;;;;;9.17;3.33;;;;;;;6.15;100.00;96439.59;5037776;28;20236;-69
2023/12/20 08:05:33;;;;;;;7.73;3.13;;;;;;;6.31;100.00;96435.38;5038589;28;20290;-69
2023/12/20 08:07:59;;;;;;;6.83;3.53;;;;;;;6.18;100.00;96436.69;5038956;28;20232;-69
2023/12/20 08:10:27;;;;;;;5.17;2.80;;;;;;;6.24;100.00;96438.72;5037141;28;20224;-69
2023/12/20 08:12:53;;;;;;;6.63;3.83;;;;;;;6.28;100.00;96438.28;5038618;28;20233;-69
2023/12/20 08:15:20;;;;;;;5.00;3.30;;;;;;;6.27;100.00;96444.47;5036646;28;20201;-69
2023/12/20 08:17:46;;;;;;;5.17;3.10;;;;;;;6.34;100.00;96435.09;5037106;28;20204;-69
2023/12/20 08:20:12;;;;;;;7.20;3.57;;;;;;;6.39;100.00;96432.00;5037377;28;20212;-69
2023/12/20 08:22:40;;;;;;;5.20;3.03;;;;;;;6.59;100.00;96446.63;5038018;28;20221;-69
2023/12/20 08:25:08;;;;;;;5.20;3.27;;;;;;;6.33;100.00;96449.13;5037732;28;20206;-69
2023/12/20 08:27:35;;;;;;;6.20;3.23;;;;;;;6.39;100.00;96448.56;5037768;28;20226;-68
2023/12/20 08:30:01;;;;;;;4.37;2.87;;;;;;;6.41;100.00;96451.03;5038567;28;20205;-68
2023/12/20 08:32:27;;;;;;;4.07;2.70;;;;;;;6.22;100.00;96451.97;5037717;28;20225;-70
2023/12/20 08:34:54;;;;;;;5.40;2.80;;;;;;;6.21;100.00;96452.94;5037645;28;20216;-70
2023/12/20 08:37:20;;;;;;;5.60;3.00;;;;;;;6.29;100.00;96457.44;5038252;28;20213;-70
2023/12/20 08:39:48;;;;;;;4.77;3.13;;;;;;;6.54;100.00;96452.31;5037759;28;20760;-70
2023/12/20 08:42:15;;;;;;;7.07;2.93;;;;;;;6.45;100.00;96450.56;5037049;28;20598;-70
2023/12/20 08:44:41;;;;;;;4.97;2.80;;;;;;;6.48;100.00;96447.66;5036783;28;20209;-71
2023/12/20 08:47:08;;;;;;;7.87;3.67;;;;;;;6.54;100.00;96447.06;5037726;28;20216;-70
2023/12/20 08:49:34;;;;;;;4.37;2.73;;;;;;;6.28;100.00;96446.13;5037171;28;20258;-71
2023/12/20 08:52:01;;;;;;;7.40;3.30;;;;;;;6.42;100.00;96443.00;5036823;28;20221;-70
2023/12/20 08:54:27;;;;;;;5.83;2.47;;;;;;;6.46;100.00;96448.78;5037686;28;20221;-70
2023/12/20 08:56:55;;;;;;;3.93;2.47;;;;;;;6.59;100.00;96449.25;5037379;28;20216;-70
2023/12/20 08:59:21;;;;;;;6.60;2.83;;;;;;;6.50;100.00;96440.47;5037317;28;20208;-70
2023/12/20 09:01:53;;;;;;;5.87;2.60;;;;;;;6.47;100.00;96453.88;5035864;28;20255;-70
2023/12/20 09:04:20;;;;;;;3.73;2.47;;;;;;;6.76;100.00;96450.09;5037577;28;20232;-70
2023/12/20 09:06:46;;;;;;;9.43;3.57;;;;;;;6.73;100.00;96447.78;5036469;28;20205;-70
2023/12/20 09:09:13;;;;;;;7.77;4.20;;;;;;;6.71;100.00;96443.66;5037725;28;20225;-70
2023/12/20 09:11:40;;;;;;;7.10;3.53;;;;;;;6.73;100.00;96441.72;5037103;28;20229;-71
2023/12/20 09:14:07;;;;;;;6.80;2.90;;;;;;;6.77;100.00;96422.94;5037519;28;20197;-70
2023/12/20 09:16:35;;;;;;;11.50;3.00;;;;;;;6.80;100.00;96427.88;5037181;28;20209;-70
2023/12/20 09:19:01;;;;;;;3.87;2.43;;;;;;;6.71;100.00;96426.16;5037223;28;20205;-71
2023/12/20 09:21:28;;;;;;;5.47;2.80;;;;;;;6.63;100.00;96427.84;5036502;28;20243;-70
2023/12/20 09:23:54;;;;;;;5.33;2.50;;;;;;;6.82;100.00;96428.56;5036996;28;20211;-70
2023/12/20 09:26:20;;;;;;;7.73;3.70;;;;;;;6.97;100.00;96426.22;5037103;28;20209;-70
2023/12/20 09:28:47;;;;;;;6.70;3.53;;;;;;;7.07;100.00;96430.41;5037032;28;20286;-70
2023/12/20 09:31:15;;;;;;;5.23;2.73;;;;;;;6.96;100.00;96422.78;5035382;28;20322;-70
2023/12/20 09:33:42;;;;;;;6.70;3.10;;;;;;;7.06;100.00;96428.75;5036548;28;20201;-70
2023/12/20 09:36:08;;;;;;;6.33;3.30;;;;;;;7.16;100.00;96436.53;5036703;28;21101;-70
2023/12/20 09:38:34;;;;;;;7.20;3.40;;;;;;;7.20;100.00;96425.59;5036882;28;20204;-70
2023/12/20 09:41:03;;;;;;;4.50;2.43;;;;;;;7.09;100.00;96438.09;5036369;28;20205;-70
2023/12/20 09:43:31;;;;;;;5.13;2.60;;;;;;;7.16;100.00;96433.94;5037502;28;20211;-70
2023/12/20 09:46:02;;;;;;;4.33;2.03;;;;;;;7.26;100.00;96434.66;5036126;28;20236;-71
2023/12/20 09:48:31;;;;;;;3.17;2.07;;;;;;;7.33;100.00;96442.59;5035488;28;20319;-70
2023/12/20 09:50:57;;;;;;;3.50;2.07;;;;;;;7.18;100.00;96434.56;5034305;28;20228;-70
2023/12/20 09:53:29;;;;;;;4.67;2.23;;;;;;;7.35;100.00;96430.13;5035020;28;20597;-70
2023/12/20 09:55:58;;;;;;;2.83;1.80;;;;;;;7.45;100.00;96435.31;5035393;28;20201;-70
2023/12/20 09:58:25;;;;;;;3.77;2.10;;;;;;;7.52;100.00;96418.81;5035683;28;20651;-70
2023/12/20 10:00:52;;;;;;;2.67;1.60;;;;;;;7.47;100.00;96421.06;5035286;28;20217;-70
2023/12/20 10:03:24;;;;;;;4.83;2.27;;;;;;;7.53;100.00;96423.03;5035521;28;20703;-70
2023/12/20 10:05:55;;;;;;;6.30;2.47;;;;;;;7.62;100.00;96419.50;5035585;28;20216;-70
2023/12/20 10:08:22;;;;;;;2.87;2.00;;;;;;;7.46;100.00;96421.22;5035515;28;20224;-70
2023/12/20 10:10:49;;;;;;;4.60;2.20;;;;;;;7.55;100.00;96415.88;5035375;28;20212;-70
2023/12/20 10:13:16;;;;;;;3.77;2.40;;;;;;;7.27;100.00;96416.97;5035166;28;20227;-70
2023/12/20 10:15:43;;;;;;;3.23;1.90;;;;;;;6.74;100.00;96423.22;5035785;28;20953;-70
2023/12/20 10:18:10;;;;;;;3.00;1.80;;;;;;;6.71;100.00;96409.63;5035338;28;20205;-70
2023/12/20 10:20:37;;;;;;;1.73;1.00;;;;;;;6.63;100.00;96417.38;5034992;28;20560;-70
2023/12/20 10:23:05;;;;;;;1.50;1.20;;;;;;;6.72;100.00;96408.63;5035679;28;20225;-70
2023/12/20 10:25:32;;;;;;;1.70;1.00;;;;;;;6.69;100.00;96409.78;5034891;28;20831;-70
2023/12/20 10:28:10;;;;;;;2.77;1.27;;;;;;;6.87;100.00;96413.22;5035353;28;20209;-70
2023/12/20 10:30:37;;;;;;;1.63;1.20;;;;;;;6.66;100.00;96409.25;5034431;28;20204;-71
2023/12/20 10:33:03;;;;;;;1.93;1.30;;;;;;;6.41;100.00;96415.19;5035039;28;20816;-70
2023/12/20 10:35:30;;;;;;;1.33;1.10;;;;;;;6.38;100.00;96420.72;5034692;28;20209;-70
2023/12/20 10:37:57;;;;;;;1.90;1.20;;;;;;;6.54;100.00;96425.31;5035733;28;20694;-70
2023/12/20 10:40:27;;;;;;;4.47;1.27;;;;;;;6.53;100.00;96418.41;5034250;28;20209;-70
2023/12/20 10:42:54;;;;;;;1.67;1.07;;;;;;;6.49;100.00;96417.91;5035961;28;20231;-70
2023/12/20 10:45:20;;;;;;;1.83;1.17;;;;;;;6.47;100.00;96416.41;5038558;28;20212;-68
2023/12/20 10:47:47;;;;;;;1.03;0.90;;;;;;;6.48;100.00;96421.50;5039765;28;20216;-69
2023/12/20 10:50:15;;;;;;;2.83;1.57;;;;;;;6.55;100.00;96416.50;5039543;28;20215;-68
2023/12/20 10:52:43;;;;;;;2.40;1.53;;;;;;;6.59;100.00;96413.41;5039717;28;20222;-69
2023/12/20 10:55:09;;;;;;;1.53;1.20;;;;;;;6.55;100.00;96409.44;5038793;28;20860;-69
2023/12/20 10:57:37;;;;;;;1.20;1.00;;;;;;;6.74;100.00;96415.38;5039283;28;20201;-69
2023/12/20 11:00:09;;;;;;;1.57;1.20;;;;;;;6.62;100.00;96423.63;5039211;28;20209;-69
2023/12/20 11:02:41;;;;;;;1.40;1.10;;;;;;;6.65;100.00;96420.69;5039382;28;20610;-69
2023/12/20 11:05:16;;;;;;;0.70;0.70;;;;;;;6.56;100.00;96429.44;5038762;28;20542;-69
2023/12/20 11:07:49;;;;;;;0.77;0.77;;;;;;;6.62;100.00;96407.91;5039044;28;20213;-68
2023/12/20 11:10:21;;;;;;;4.03;0.87;;;;;;;6.58;100.00;96424.03;5039866;28;20224;-68
2023/12/20 11:12:54;;;;;;;1.13;0.90;;;;;;;6.73;100.00;96420.75;5038601;28;20225;-69
2023/12/20 11:15:22;;;;;;;0.97;0.83;;;;;;;6.53;100.00;96423.66;5038508;28;20213;-69
2023/12/20 11:17:55;;;;;;;1.37;0.80;;;;;;;6.74;100.00;96402.28;5038696;28;20205;-69
2023/12/20 11:20:24;;;;;;;0.43;0.43;;;;;;;6.65;100.00;96405.78;5038511;28;20208;-69
2023/12/20 11:22:54;;;;;;;0.70;0.70;;;;;;;6.79;100.00;96409.69;5038300;28;20251;-68
2023/12/20 11:25:21;;;;;;;0.80;0.80;;;;;;;6.70;100.00;96398.31;5038299;28;20701;-69
2023/12/20 11:28:09;;;;;;;0.67;0.67;;;;;;;6.99;100.00;96401.53;5038902;28;20598;-69
2023/12/20 11:30:43;;;;;;;1.03;0.60;;;;;;;7.01;100.00;96410.03;5035120;28;20456;-69
2023/12/20 11:33:10;;;;;;;1.70;1.03;;;;;;;6.92;100.00;96397.03;5038692;28;20558;-69